Airfield :
LOGIN :

Register | Disclaimer

   EN    FR    IT 

 










Legend :    VFR   Marginal VFR   IFR   Intensive IFR   Very Intensive IFR
Visi :
Ceiling :
>= 8 km
>= 3000ft
5 to 8 km
1000 to 3000 ft
1500m to 5 km
500 to 1000 ft
800 to 1500m
200 to 500 ft
< 800m
< 200 ft
Symbols :   Thunderstorms  Fog  Heavy snow  Heavy precipitations  Wind > 20 kt
SIGMETs :     Misc.  Thunderstorms  Icing  Turbulence  Mountain Waves  Volcanic Ashes






- Airport Elevation : 65 ft
- IATA code : PIK


EGPK - Glasgow Prestwick

CURRENT METAR :
  • 071050Z 19011KT 9999 SCT011 BKN022 09/07 Q1005

EXPIRED METARs :
  • 071020Z 19013KT 9999 SCT015 BKN025 09/07 Q1005
  • 070950Z 20012KT 9999 SCT015 BKN025 09/07 Q1005
  • 070920Z 20011KT 9999 SCT015 BKN025 09/07 Q1006
  • 070850Z 21013KT 9999 SCT015 BKN025 09/07 Q1006
  • 070820Z 22014KT 9999 FEW012 SCT020 09/07 Q1006

TAF TAF EGPK
Valid from the 07 at 06:00 until the 08 at 06:00 UTC


070504Z 0706/0806 25012KT 9999 FEW012 SCT025
TEMPO 0706/0709 7000 -RA BKN012
BECMG 0709/0712 19014KT BKN014
TEMPO 0709/0718 4000 RADZ BKN007
TEMPO 0712/0718 20020G30KT
BECMG 0717/0720 6000 RA FEW010 BKN015
TEMPO 0718/0801 20023G35KT 3000 +RA BKN009
BECMG 0723/0802 26025G35KT 9999 NSW
PROB30
TEMPO 0802/0806 7000 SHRA



MET'MAP, your aeronautical weather chart ! - Copyright ORBIFLY December 2007 - Disclaimer

ORBIFLY MET'MAP TEAM :

Programming & Development : Alexandra Zaïnal
Concept & original design : Baudouin d'Aumeries
Assistance for programming : Marc-Olivier Méhu
Technical & hardware support : Manuel Goepfert

Contact : metmap@orbifly.com




SOURCES & CREDITS :

   NOAA